createdAt,value
2018-08-04T00:00:18.943Z,4.00
2018-08-04T00:01:18.964Z,4.00
2018-08-04T00:02:18.995Z,4.00
2018-08-04T00:03:19.004Z,4.00
2018-08-04T00:04:19.036Z,4.00
2018-08-04T00:05:19.061Z,4.00
2018-08-04T00:06:19.076Z,4.00
2018-08-04T00:07:19.100Z,4.00
2018-08-04T00:08:19.126Z,4.00
2018-08-04T00:09:19.147Z,4.00
2018-08-04T00:10:19.198Z,4.00
2018-08-04T00:11:19.193Z,4.00
2018-08-04T00:12:19.212Z,4.00
2018-08-04T00:13:19.232Z,4.00
2018-08-04T00:14:19.255Z,4.00
2018-08-04T00:15:19.278Z,4.00
2018-08-04T00:16:19.368Z,4.00
2018-08-04T00:17:19.328Z,4.00
2018-08-04T00:18:19.340Z,4.00
2018-08-04T00:19:19.362Z,4.00
2018-08-04T00:20:19.388Z,4.00
2018-08-04T00:21:19.402Z,4.00
2018-08-04T00:22:19.423Z,4.00
2018-08-04T00:23:19.445Z,4.00
2018-08-04T00:24:19.462Z,4.00
2018-08-04T00:25:19.497Z,4.00
2018-08-04T00:26:19.508Z,4.00
2018-08-04T00:27:19.534Z,4.00
2018-08-04T00:28:19.554Z,4.00
2018-08-04T00:29:19.577Z,4.00
2018-08-04T00:30:19.598Z,4.00
2018-08-04T00:31:19.673Z,4.00
2018-08-04T00:32:19.640Z,4.00
2018-08-04T00:33:19.670Z,4.00
2018-08-04T00:34:19.684Z,4.00
2018-08-04T00:35:19.727Z,4.00
2018-08-04T00:36:19.735Z,4.00
2018-08-04T00:37:19.758Z,4.00
2018-08-04T00:38:19.771Z,4.00
2018-08-04T00:39:19.798Z,4.00
2018-08-04T00:40:19.818Z,4.00
2018-08-04T00:41:19.882Z,4.00
2018-08-04T00:42:19.863Z,4.00
2018-08-04T00:43:19.882Z,4.00
2018-08-04T00:44:19.900Z,4.00
2018-08-04T00:45:19.924Z,4.00
2018-08-04T00:46:19.944Z,4.00
2018-08-04T00:47:20.015Z,4.00
2018-08-04T00:48:19.991Z,4.00
2018-08-04T00:49:20.019Z,4.00
2018-08-04T00:50:20.037Z,4.00
2018-08-04T00:51:20.056Z,4.00
2018-08-04T00:52:20.077Z,4.00
2018-08-04T00:53:20.155Z,4.00
2018-08-04T00:54:20.116Z,4.00
2018-08-04T00:55:20.141Z,4.00
2018-08-04T00:56:20.159Z,4.00
2018-08-04T00:57:20.176Z,4.00
2018-08-04T00:58:20.211Z,4.00
2018-08-04T00:59:20.247Z,4.00
2018-08-04T01:00:20.248Z,4.00
2018-08-04T01:01:20.265Z,4.00
2018-08-04T01:02:20.293Z,4.00
2018-08-04T01:03:20.308Z,4.00
2018-08-04T01:04:20.339Z,4.00
2018-08-04T01:05:20.357Z,4.00
2018-08-04T01:06:20.381Z,4.00
2018-08-04T01:07:20.395Z,4.00
2018-08-04T01:08:20.420Z,4.00
2018-08-04T01:09:20.446Z,4.00
2018-08-04T01:10:20.467Z,4.00
2018-08-04T01:11:20.489Z,4.00
2018-08-04T01:12:20.557Z,4.00
2018-08-04T01:13:20.528Z,4.00
2018-08-04T01:14:20.551Z,4.00
2018-08-04T01:15:20.572Z,4.00
2018-08-04T01:16:20.593Z,4.00
2018-08-04T01:17:20.623Z,4.00
2018-08-04T01:18:20.708Z,4.00
2018-08-04T01:19:20.656Z,4.00
2018-08-04T01:20:20.687Z,4.00
2018-08-04T01:21:20.703Z,4.00
2018-08-04T01:22:20.730Z,4.00
2018-08-04T01:23:20.740Z,4.00
2018-08-04T01:24:20.762Z,4.00
2018-08-04T01:25:20.788Z,4.00
2018-08-04T01:26:20.812Z,4.00
2018-08-04T01:27:20.870Z,4.00
2018-08-04T01:28:20.858Z,4.00
2018-08-04T01:29:20.869Z,4.00
2018-08-04T01:30:20.980Z,4.00
2018-08-04T01:31:21.011Z,4.00
2018-08-04T01:32:20.947Z,4.00
2018-08-04T01:33:20.961Z,4.00
2018-08-04T01:34:20.987Z,4.00
2018-08-04T01:35:21.001Z,4.00
2018-08-04T01:36:21.028Z,4.00
2018-08-04T01:37:21.044Z,4.00
2018-08-04T01:38:21.071Z,4.00
2018-08-04T01:39:21.093Z,4.00
2018-08-04T01:40:21.115Z,4.00
2018-08-04T01:41:21.143Z,4.00
2018-08-04T01:42:21.160Z,4.00
2018-08-04T01:43:21.233Z,4.00
2018-08-04T01:44:21.207Z,4.00
2018-08-04T01:45:21.220Z,4.00
2018-08-04T01:46:21.253Z,4.00
2018-08-04T01:47:21.260Z,4.00
2018-08-04T01:48:21.285Z,4.00
2018-08-04T01:49:21.399Z,4.00
2018-08-04T01:50:21.332Z,4.00
2018-08-04T01:51:21.353Z,4.00
2018-08-04T01:52:21.371Z,4.00
2018-08-04T01:53:21.398Z,4.00
2018-08-04T01:54:21.418Z,4.00
2018-08-04T01:55:21.495Z,4.00
2018-08-04T01:56:21.457Z,4.00
2018-08-04T01:57:21.488Z,4.00
2018-08-04T01:58:21.502Z,4.00
2018-08-04T01:59:21.527Z,4.00
2018-08-04T02:00:21.548Z,4.00
2018-08-04T02:01:21.585Z,4.00
2018-08-04T02:02:21.597Z,4.00
2018-08-04T02:03:21.611Z,4.00
2018-08-04T02:04:21.642Z,4.00
2018-08-04T02:05:21.652Z,4.00
2018-08-04T02:06:21.677Z,4.00
2018-08-04T02:07:21.712Z,4.00
2018-08-04T02:08:21.712Z,4.00
2018-08-04T02:09:21.739Z,4.00
2018-08-04T02:10:21.767Z,4.00
2018-08-04T02:11:21.785Z,4.00
2018-08-04T02:12:21.803Z,4.00
2018-08-04T02:13:21.827Z,4.00
2018-08-04T02:14:21.884Z,4.00
2018-08-04T02:15:21.860Z,4.00
2018-08-04T02:16:21.891Z,4.00
2018-08-04T02:17:21.904Z,4.00
2018-08-04T02:18:21.934Z,4.00
2018-08-04T02:19:21.958Z,4.00
2018-08-04T02:20:21.975Z,4.00
2018-08-04T02:21:21.992Z,4.00
2018-08-04T02:22:22.022Z,4.00
2018-08-04T02:23:22.039Z,4.00
2018-08-04T02:24:22.057Z,4.00
2018-08-04T02:25:22.085Z,4.00
2018-08-04T02:26:22.096Z,4.00
2018-08-04T02:27:22.133Z,4.00
2018-08-04T02:28:22.140Z,4.00
2018-08-04T02:29:22.164Z,4.00
2018-08-04T02:30:22.189Z,4.00
2018-08-04T02:31:22.215Z,4.00
2018-08-04T02:32:22.239Z,4.00
2018-08-04T02:33:22.321Z,4.00
2018-08-04T02:34:22.273Z,4.00
2018-08-04T02:35:22.296Z,4.00
2018-08-04T02:36:22.326Z,4.00
2018-08-04T02:37:22.333Z,4.00
2018-08-04T02:38:22.367Z,4.00
2018-08-04T02:39:22.397Z,4.00
2018-08-04T02:40:22.396Z,4.00
2018-08-04T02:41:22.424Z,4.00
2018-08-04T02:42:22.441Z,4.00
2018-08-04T02:43:22.464Z,4.00
2018-08-04T02:44:22.484Z,4.00
2018-08-04T02:45:22.557Z,4.00
2018-08-04T02:46:22.528Z,4.00
2018-08-04T02:47:22.556Z,4.00
2018-08-04T02:48:22.573Z,4.00
2018-08-04T02:49:22.592Z,4.00
2018-08-04T02:50:22.608Z,4.00
2018-08-04T02:51:22.637Z,4.00
2018-08-04T02:52:22.658Z,4.00
2018-08-04T02:53:22.681Z,4.00
2018-08-04T02:54:22.700Z,4.00
2018-08-04T02:55:22.720Z,4.00
2018-08-04T02:56:22.743Z,4.00
2018-08-04T02:57:22.763Z,4.00
2018-08-04T02:58:22.789Z,4.00
2018-08-04T02:59:22.820Z,4.00
2018-08-04T03:00:22.838Z,4.00
2018-08-04T03:01:22.845Z,4.00
2018-08-04T03:02:22.871Z,4.00
2018-08-04T03:03:22.929Z,4.00
2018-08-04T03:04:22.913Z,4.00
2018-08-04T03:05:22.941Z,4.00
2018-08-04T03:06:22.965Z,4.00
2018-08-04T03:07:22.978Z,4.00
2018-08-04T03:08:23.048Z,4.00
2018-08-04T03:09:23.030Z,4.00
2018-08-04T03:10:23.037Z,4.00
2018-08-04T03:11:23.061Z,4.00
2018-08-04T03:12:23.081Z,4.00
2018-08-04T03:13:23.104Z,4.00
2018-08-04T03:14:23.127Z,4.00
2018-08-04T03:15:23.201Z,4.00
2018-08-04T03:16:23.211Z,4.00
2018-08-04T03:17:23.193Z,4.00
2018-08-04T03:18:23.256Z,4.00
2018-08-04T03:19:23.256Z,4.00
2018-08-04T03:20:23.259Z,4.00
2018-08-04T03:21:23.285Z,4.00
2018-08-04T03:22:23.296Z,4.00
2018-08-04T03:23:23.312Z,4.00
2018-08-04T03:24:23.342Z,4.00
2018-08-04T03:25:23.366Z,4.00
2018-08-04T03:26:23.376Z,4.00
2018-08-04T03:27:23.404Z,4.00
2018-08-04T03:28:23.426Z,4.00
2018-08-04T03:29:23.450Z,4.00
2018-08-04T03:30:23.476Z,4.00
2018-08-04T03:31:23.481Z,4.00
2018-08-04T03:32:23.506Z,4.00
2018-08-04T03:33:23.523Z,4.00
2018-08-04T03:34:23.570Z,4.00
2018-08-04T03:35:23.572Z,4.00
2018-08-04T03:36:23.594Z,4.00
2018-08-04T03:37:23.618Z,4.00
2018-08-04T03:38:23.646Z,4.00
2018-08-04T03:39:23.662Z,4.00
2018-08-04T03:40:23.732Z,4.00
2018-08-04T03:41:23.698Z,4.00
2018-08-04T03:42:23.716Z,4.00
2018-08-04T03:43:23.737Z,4.00
2018-08-04T03:44:23.766Z,4.00
2018-08-04T03:45:23.779Z,4.00
2018-08-04T03:46:23.834Z,4.00
2018-08-04T03:47:23.828Z,4.00
2018-08-04T03:48:23.850Z,4.00
2018-08-04T03:49:23.868Z,4.00
2018-08-04T03:50:23.888Z,4.00
2018-08-04T03:51:23.915Z,4.00
2018-08-04T03:52:23.939Z,4.00
2018-08-04T03:53:23.952Z,4.00
2018-08-04T03:54:23.974Z,4.00
2018-08-04T03:55:23.991Z,4.00
2018-08-04T03:56:24.017Z,4.00
2018-08-04T03:57:24.037Z,4.00
2018-08-04T03:58:24.145Z,4.00
2018-08-04T03:59:24.076Z,4.00
2018-08-04T04:00:24.097Z,4.00
2018-08-04T04:01:24.124Z,4.00
2018-08-04T04:02:24.143Z,4.00
2018-08-04T04:03:24.159Z,4.00
2018-08-04T04:04:24.260Z,4.00
2018-08-04T04:05:24.204Z,4.00
2018-08-04T04:06:24.224Z,4.00
2018-08-04T04:07:24.250Z,4.00
2018-08-04T04:08:24.272Z,4.00
2018-08-04T04:09:24.293Z,4.00
2018-08-04T04:10:24.310Z,4.00
2018-08-04T04:11:24.334Z,4.00
2018-08-04T04:12:24.352Z,4.00
2018-08-04T04:13:24.378Z,4.00
2018-08-04T04:14:24.398Z,4.00
2018-08-04T04:15:24.416Z,4.00
2018-08-04T04:16:24.440Z,4.00
2018-08-04T04:17:24.460Z,4.00
2018-08-04T04:18:24.486Z,4.00
2018-08-04T04:19:24.504Z,4.00
2018-08-04T04:20:24.526Z,4.00
2018-08-04T04:21:24.540Z,4.00
2018-08-04T04:22:24.566Z,4.00
2018-08-04T04:23:24.588Z,4.00
2018-08-04T04:24:24.614Z,4.00
2018-08-04T04:25:24.635Z,4.00
2018-08-04T04:26:24.650Z,4.00
2018-08-04T04:27:24.674Z,4.00
2018-08-04T04:28:24.694Z,4.00
2018-08-04T04:29:24.712Z,4.00
2018-08-04T04:30:24.731Z,4.00
2018-08-04T04:31:24.756Z,4.00
2018-08-04T04:32:24.772Z,4.00
2018-08-04T04:33:24.794Z,4.00
2018-08-04T04:34:24.822Z,4.00
2018-08-04T04:35:24.835Z,4.00
2018-08-04T04:36:24.852Z,4.00
2018-08-04T04:37:24.879Z,4.00
2018-08-04T04:38:24.906Z,4.00
2018-08-04T04:39:24.919Z,4.00
2018-08-04T04:40:24.942Z,4.00
2018-08-04T04:41:25.015Z,4.00
2018-08-04T04:42:24.990Z,4.00
2018-08-04T04:43:25.011Z,4.00
2018-08-04T04:44:25.027Z,4.00
2018-08-04T04:45:25.049Z,4.00
2018-08-04T04:46:25.075Z,4.00
2018-08-04T04:47:25.089Z,4.00
2018-08-04T04:48:25.115Z,4.00
2018-08-04T04:49:25.163Z,4.00
2018-08-04T04:50:25.151Z,4.00
2018-08-04T04:51:25.233Z,4.00
2018-08-04T04:52:25.194Z,4.00
2018-08-04T04:53:25.214Z,4.00
2018-08-04T04:54:25.241Z,4.00
2018-08-04T04:55:25.289Z,4.00
2018-08-04T04:56:25.282Z,4.00
2018-08-04T04:57:25.300Z,4.00
2018-08-04T04:58:25.322Z,4.00
2018-08-04T04:59:25.368Z,4.00
2018-08-04T05:00:25.366Z,4.00
2018-08-04T05:01:25.387Z,4.00
2018-08-04T05:02:25.411Z,4.00
2018-08-04T05:03:25.435Z,4.00
2018-08-04T05:04:25.502Z,4.00
2018-08-04T05:05:25.471Z,4.00
2018-08-04T05:06:25.576Z,4.00
2018-08-04T05:07:25.518Z,4.00
2018-08-04T05:08:25.531Z,4.00
2018-08-04T05:09:25.548Z,0.00
2018-08-04T05:10:25.569Z,0.00
2018-08-04T05:11:25.619Z,0.00
2018-08-04T05:12:25.701Z,0.00
2018-08-04T05:13:25.711Z,0.00
2018-08-04T05:14:25.658Z,4.00
2018-08-04T05:15:25.672Z,4.00
2018-08-04T05:16:25.699Z,4.00
2018-08-04T05:17:25.723Z,4.00
2018-08-04T05:18:25.740Z,4.00
2018-08-04T05:19:25.756Z,4.00
2018-08-04T05:20:25.787Z,8.00
2018-08-04T05:21:25.867Z,4.00
2018-08-04T05:22:25.826Z,8.00
2018-08-04T05:23:25.851Z,8.00
2018-08-04T05:24:25.902Z,8.00
2018-08-04T05:25:25.892Z,12.00
2018-08-04T05:26:25.910Z,12.00
2018-08-04T05:27:25.929Z,12.00
2018-08-04T05:28:25.945Z,16.00
2018-08-04T05:29:25.971Z,16.00
2018-08-04T05:30:25.992Z,20.00
2018-08-04T05:31:26.006Z,24.00
2018-08-04T05:32:26.029Z,24.00
2018-08-04T05:33:26.059Z,28.00
2018-08-04T05:34:26.078Z,32.00
2018-08-04T05:35:26.096Z,36.00
2018-08-04T05:36:26.113Z,40.00
2018-08-04T05:37:26.223Z,44.00
2018-08-04T05:38:26.163Z,52.00
2018-08-04T05:39:26.176Z,52.00
2018-08-04T05:40:26.204Z,60.00
2018-08-04T05:41:26.253Z,64.00
2018-08-04T05:42:26.247Z,72.00
2018-08-04T05:43:26.325Z,80.00
2018-08-04T05:44:26.287Z,88.00
2018-08-04T05:45:26.308Z,96.00
2018-08-04T05:46:26.325Z,104.00
2018-08-04T05:47:26.349Z,112.00
2018-08-04T05:48:26.383Z,124.00
2018-08-04T05:49:26.390Z,132.00
2018-08-04T05:50:26.411Z,144.00
2018-08-04T05:51:26.438Z,160.00
2018-08-04T05:52:26.464Z,172.00
2018-08-04T05:53:26.474Z,188.00
2018-08-04T05:54:26.496Z,200.00
2018-08-04T05:55:26.513Z,216.00
2018-08-04T05:56:26.592Z,232.00
2018-08-04T05:57:26.566Z,248.00
2018-08-04T05:58:26.582Z,268.00
2018-08-04T05:59:26.600Z,284.00
2018-08-04T06:00:26.627Z,304.00
2018-08-04T06:01:26.645Z,320.00
2018-08-04T06:02:26.667Z,340.00
2018-08-04T06:03:26.688Z,356.00
2018-08-04T06:04:26.702Z,380.00
2018-08-04T06:05:26.726Z,400.00
2018-08-04T06:06:26.755Z,420.00
2018-08-04T06:07:26.772Z,448.00
2018-08-04T06:08:26.811Z,468.00
2018-08-04T06:09:26.813Z,492.00
2018-08-04T06:10:26.830Z,512.00
2018-08-04T06:11:26.858Z,536.00
2018-08-04T06:12:26.872Z,564.00
2018-08-04T06:13:26.898Z,588.00
2018-08-04T06:14:26.927Z,616.00
2018-08-04T06:15:26.943Z,644.00
2018-08-04T06:16:26.963Z,668.00
2018-08-04T06:17:26.984Z,696.00
2018-08-04T06:18:27.006Z,724.00
2018-08-04T06:19:27.031Z,752.00
2018-08-04T06:20:27.040Z,780.00
2018-08-04T06:21:27.063Z,808.00
2018-08-04T06:22:27.080Z,836.00
2018-08-04T06:23:27.100Z,868.00
2018-08-04T06:24:27.126Z,896.00
2018-08-04T06:25:27.151Z,928.00
2018-08-04T06:26:27.166Z,960.00
2018-08-04T06:27:27.186Z,988.00
2018-08-04T06:28:27.212Z,1020.00
2018-08-04T06:29:27.231Z,1052.00
2018-08-04T06:30:27.302Z,1088.00
2018-08-04T06:31:27.278Z,1116.00
2018-08-04T06:32:27.295Z,1152.00
2018-08-04T06:33:27.314Z,1188.00
2018-08-04T06:34:27.342Z,1220.00
2018-08-04T06:35:27.356Z,1256.00
2018-08-04T06:36:27.380Z,1288.00
2018-08-04T06:37:27.410Z,1324.00
2018-08-04T06:38:27.424Z,1360.00
2018-08-04T06:39:27.446Z,1396.00
2018-08-04T06:40:27.466Z,1432.00
2018-08-04T06:41:27.492Z,1472.00
2018-08-04T06:42:27.507Z,1504.00
2018-08-04T06:43:27.531Z,1540.00
2018-08-04T06:44:27.548Z,1584.00
2018-08-04T06:45:27.619Z,1620.00
2018-08-04T06:46:27.607Z,1656.00
2018-08-04T06:47:27.616Z,1696.00
2018-08-04T06:48:27.635Z,1736.00
2018-08-04T06:49:27.664Z,1780.00
2018-08-04T06:50:27.683Z,1828.00
2018-08-04T06:51:27.700Z,1876.00
2018-08-04T06:52:27.725Z,1932.00
2018-08-04T06:53:27.748Z,1996.00
2018-08-04T06:54:27.769Z,2060.00
2018-08-04T06:55:27.796Z,2124.00
2018-08-04T06:56:27.821Z,2184.00
2018-08-04T06:57:27.849Z,2236.00
2018-08-04T06:58:27.944Z,2288.00
2018-08-04T06:59:27.871Z,2340.00
2018-08-04T07:00:27.895Z,2392.00
2018-08-04T07:01:27.924Z,2444.00
2018-08-04T07:02:27.950Z,2492.00
2018-08-04T07:03:27.985Z,2540.00
2018-08-04T07:04:27.994Z,2588.00
2018-08-04T07:05:28.011Z,2644.00
2018-08-04T07:06:28.031Z,2704.00
2018-08-04T07:07:28.062Z,2760.00
2018-08-04T07:08:28.072Z,2812.00
2018-08-04T07:09:28.160Z,2868.00
2018-08-04T07:10:28.128Z,2916.00
2018-08-04T07:11:28.146Z,2968.00
2018-08-04T07:12:28.166Z,3028.00
2018-08-04T07:13:28.193Z,3080.00
2018-08-04T07:14:28.213Z,3128.00
2018-08-04T07:15:28.238Z,3180.00
2018-08-04T07:16:28.254Z,3236.00
2018-08-04T07:17:28.271Z,3288.00
2018-08-04T07:18:28.299Z,3352.00
2018-08-04T07:19:28.323Z,3412.00
2018-08-04T07:20:28.347Z,3468.00
2018-08-04T07:21:28.376Z,3524.00
2018-08-04T07:22:28.413Z,3584.00
2018-08-04T07:23:28.408Z,3644.00
2018-08-04T07:24:28.438Z,3704.00
2018-08-04T07:25:28.466Z,3760.00
2018-08-04T07:26:28.480Z,3812.00
2018-08-04T07:27:28.510Z,3868.00
2018-08-04T07:28:28.564Z,3924.00
2018-08-04T07:29:28.552Z,3980.00
2018-08-04T07:30:28.576Z,4040.00
2018-08-04T07:31:28.606Z,4104.00
2018-08-04T07:32:28.629Z,4168.00
2018-08-04T07:33:28.635Z,4228.00
2018-08-04T07:34:28.656Z,4292.00
2018-08-04T07:35:28.680Z,4348.00
2018-08-04T07:36:28.703Z,4416.00
2018-08-04T07:37:28.728Z,4484.00
2018-08-04T07:38:28.754Z,4552.00
2018-08-04T07:39:28.772Z,4616.00
2018-08-04T07:40:28.842Z,4688.00
2018-08-04T07:41:28.833Z,4748.00
2018-08-04T07:42:28.847Z,4808.00
2018-08-04T07:43:28.866Z,4868.00
2018-08-04T07:44:28.883Z,4928.00
2018-08-04T07:45:28.915Z,5000.00
2018-08-04T07:46:29.022Z,5056.00
2018-08-04T07:47:28.980Z,5112.00
2018-08-04T07:48:28.985Z,5168.00
2018-08-04T07:49:29.014Z,5236.00
2018-08-04T07:50:29.033Z,5296.00
2018-08-04T07:51:29.054Z,5364.00
2018-08-04T07:52:29.075Z,5432.00
2018-08-04T07:53:29.101Z,5500.00
2018-08-04T07:54:29.140Z,5560.00
2018-08-04T07:55:29.150Z,5620.00
2018-08-04T07:56:29.174Z,5684.00
2018-08-04T07:57:29.195Z,5736.00
2018-08-04T07:58:29.220Z,5788.00
2018-08-04T07:59:29.256Z,5840.00
2018-08-04T08:00:29.276Z,5912.00
2018-08-04T08:01:29.290Z,5972.00
2018-08-04T08:02:29.311Z,6044.00
2018-08-04T08:03:29.341Z,6112.00
2018-08-04T08:04:29.358Z,6176.00
2018-08-04T08:05:29.470Z,6236.00
2018-08-04T08:06:29.411Z,6300.00
2018-08-04T08:07:29.435Z,6356.00
2018-08-04T08:08:29.459Z,6388.00
2018-08-04T08:09:29.481Z,6440.00
2018-08-04T08:10:29.603Z,6488.00
2018-08-04T08:11:29.575Z,6544.00
2018-08-04T08:12:29.553Z,6608.00
2018-08-04T08:13:29.579Z,6668.00
2018-08-04T08:14:29.601Z,6728.00
2018-08-04T08:15:29.625Z,6780.00
2018-08-04T08:16:29.647Z,6828.00
2018-08-04T08:17:29.702Z,6872.00
2018-08-04T08:18:29.703Z,6932.00
2018-08-04T08:19:29.773Z,7004.00
2018-08-04T08:20:29.747Z,7056.00
2018-08-04T08:21:29.787Z,7104.00
2018-08-04T08:22:29.805Z,7152.00
2018-08-04T08:23:29.816Z,7208.00
2018-08-04T08:24:29.846Z,7256.00
2018-08-04T08:25:29.875Z,7320.00
2018-08-04T08:26:29.898Z,7364.00
2018-08-04T08:27:29.916Z,7420.00
2018-08-04T08:28:29.943Z,7488.00
2018-08-04T08:29:29.974Z,7532.00
2018-08-04T08:30:30.063Z,7584.00
2018-08-04T08:31:30.076Z,7628.00
2018-08-04T08:32:30.090Z,7676.00
2018-08-04T08:33:30.074Z,7744.00
2018-08-04T08:34:30.102Z,7804.00
2018-08-04T08:35:30.128Z,7872.00
2018-08-04T08:36:30.156Z,7916.00
2018-08-04T08:37:30.174Z,7964.00
2018-08-04T08:38:30.202Z,8036.00
2018-08-04T08:39:30.227Z,8080.00
2018-08-04T08:40:30.320Z,8148.00
2018-08-04T08:41:30.277Z,8212.00
2018-08-04T08:42:30.305Z,8272.00
2018-08-04T08:43:30.324Z,8332.00
2018-08-04T08:44:30.353Z,8384.00
2018-08-04T08:45:30.374Z,8412.00
2018-08-04T08:46:30.400Z,8472.00
2018-08-04T08:47:30.431Z,8532.00
2018-08-04T08:48:30.451Z,8600.00
2018-08-04T08:49:30.482Z,8612.00
2018-08-04T08:50:30.499Z,8660.00
2018-08-04T08:51:30.530Z,8708.00
2018-08-04T08:52:30.549Z,8772.00
2018-08-04T08:53:30.823Z,8824.00
2018-08-04T08:54:30.606Z,8900.00
2018-08-04T08:55:30.636Z,8956.00
2018-08-04T08:56:30.648Z,9008.00
2018-08-04T08:57:30.686Z,9056.00
2018-08-04T08:58:30.713Z,9100.00
2018-08-04T08:59:30.731Z,9148.00
2018-08-04T09:00:30.763Z,9192.00
2018-08-04T09:01:30.929Z,9256.00
2018-08-04T09:02:30.811Z,9320.00
2018-08-04T09:03:30.842Z,9368.00
2018-08-04T09:04:30.863Z,9416.00
2018-08-04T09:05:30.897Z,9448.00
2018-08-04T09:06:30.912Z,9464.00
2018-08-04T09:07:30.950Z,9500.00
2018-08-04T09:08:30.991Z,9560.00
2018-08-04T09:09:30.997Z,9600.00
2018-08-04T09:10:31.016Z,9660.00
2018-08-04T09:11:31.049Z,9724.00
2018-08-04T09:12:31.078Z,9772.00
2018-08-04T09:13:31.102Z,9816.00
2018-08-04T09:14:31.126Z,9856.00
2018-08-04T09:15:31.150Z,9936.00
2018-08-04T09:16:31.189Z,9956.00
2018-08-04T09:17:31.236Z,9996.00
2018-08-04T09:18:31.229Z,10052.00
2018-08-04T09:19:31.252Z,10092.00
2018-08-04T09:20:31.282Z,10152.00
2018-08-04T09:21:31.319Z,10204.00
2018-08-04T09:22:31.331Z,10256.00
2018-08-04T09:23:31.352Z,10308.00
2018-08-04T09:24:31.395Z,10340.00
2018-08-04T09:25:31.464Z,10372.00
2018-08-04T09:26:31.434Z,10416.00
2018-08-04T09:27:31.459Z,10444.00
2018-08-04T09:28:31.490Z,10480.00
2018-08-04T09:29:31.508Z,10524.00
2018-08-04T09:30:31.536Z,10540.00
2018-08-04T09:31:31.592Z,10576.00
2018-08-04T09:32:31.595Z,10608.00
2018-08-04T09:33:31.620Z,10648.00
2018-08-04T09:34:31.650Z,10696.00
2018-08-04T09:35:31.668Z,10740.00
2018-08-04T09:36:31.699Z,10760.00
2018-08-04T09:37:31.749Z,10804.00
2018-08-04T09:38:31.748Z,10824.00
2018-08-04T09:39:31.777Z,10840.00
2018-08-04T09:40:31.803Z,10892.00
2018-08-04T09:41:31.828Z,10948.00
2018-08-04T09:42:31.865Z,10984.00
2018-08-04T09:43:31.894Z,11020.00
2018-08-04T09:44:31.908Z,11052.00
2018-08-04T09:45:31.942Z,11092.00
2018-08-04T09:46:31.974Z,11124.00
2018-08-04T09:47:31.993Z,11152.00
2018-08-04T09:48:32.019Z,11160.00
2018-08-04T09:49:32.049Z,11192.00
2018-08-04T09:50:32.072Z,11224.00
2018-08-04T09:51:32.102Z,11268.00
2018-08-04T09:52:32.162Z,11304.00
2018-08-04T09:53:32.162Z,11332.00
2018-08-04T09:54:32.186Z,11368.00
2018-08-04T09:55:32.216Z,11388.00
2018-08-04T09:56:32.240Z,11424.00
2018-08-04T09:57:32.275Z,11432.00
2018-08-04T09:58:32.286Z,11452.00
2018-08-04T09:59:32.387Z,11480.00
2018-08-04T10:00:32.340Z,11516.00
2018-08-04T10:01:32.374Z,11544.00
2018-08-04T10:02:32.395Z,11568.00
2018-08-04T10:03:32.425Z,11588.00
2018-08-04T10:04:32.458Z,11616.00
2018-08-04T10:05:32.480Z,11648.00
2018-08-04T10:06:32.510Z,11668.00
2018-08-04T10:07:32.536Z,11716.00
2018-08-04T10:08:32.571Z,11752.00
2018-08-04T10:09:32.619Z,11792.00
2018-08-04T10:10:32.624Z,11820.00
2018-08-04T10:11:32.650Z,11848.00
2018-08-04T10:12:32.676Z,11880.00
2018-08-04T10:13:32.703Z,11912.00
2018-08-04T10:14:32.747Z,11924.00
2018-08-04T10:15:32.798Z,11960.00
2018-08-04T10:16:32.784Z,11972.00
2018-08-04T10:17:32.814Z,12008.00
2018-08-04T10:18:32.842Z,12020.00
2018-08-04T10:19:32.872Z,12060.00
2018-08-04T10:20:32.896Z,12084.00
2018-08-04T10:21:32.928Z,12116.00
2018-08-04T10:22:32.955Z,12144.00
2018-08-04T10:23:32.980Z,12164.00
2018-08-04T10:24:33.012Z,12188.00
2018-08-04T10:25:33.036Z,12200.00
2018-08-04T10:26:33.070Z,12240.00
2018-08-04T10:27:33.092Z,12272.00
2018-08-04T10:28:33.123Z,12300.00
2018-08-04T10:29:33.155Z,12320.00
2018-08-04T10:30:33.179Z,12340.00
2018-08-04T10:31:33.210Z,12364.00
2018-08-04T10:32:33.332Z,12388.00
2018-08-04T10:33:33.267Z,12396.00
2018-08-04T10:34:33.285Z,12432.00
2018-08-04T10:35:33.315Z,12464.00
2018-08-04T10:36:33.344Z,12468.00
2018-08-04T10:37:33.373Z,12504.00
2018-08-04T10:38:33.443Z,12532.00
2018-08-04T10:39:33.428Z,12556.00
2018-08-04T10:40:33.452Z,12568.00
2018-08-04T10:41:33.486Z,12588.00
2018-08-04T10:42:33.514Z,12588.00
2018-08-04T10:43:33.547Z,12628.00
2018-08-04T10:44:33.577Z,12648.00
2018-08-04T10:45:33.595Z,12676.00
2018-08-04T10:46:33.651Z,12704.00
2018-08-04T10:47:33.658Z,12740.00
2018-08-04T10:48:33.677Z,12748.00
2018-08-04T10:49:33.727Z,12756.00
2018-08-04T10:50:33.729Z,12808.00
2018-08-04T10:51:33.763Z,12804.00
2018-08-04T10:52:33.788Z,12804.00
2018-08-04T10:53:33.821Z,12836.00
2018-08-04T10:54:33.850Z,12856.00
2018-08-04T10:55:33.876Z,12860.00
2018-08-04T10:56:33.905Z,12872.00
2018-08-04T10:57:33.935Z,12892.00
2018-08-04T10:58:33.961Z,12904.00
2018-08-04T10:59:33.984Z,12928.00
2018-08-04T11:00:34.016Z,12932.00
2018-08-04T11:01:34.040Z,12952.00
2018-08-04T11:02:34.078Z,12952.00
2018-08-04T11:03:34.107Z,12948.00
2018-08-04T11:04:34.177Z,12936.00
2018-08-04T11:05:34.162Z,12940.00
2018-08-04T11:06:34.195Z,12948.00
2018-08-04T11:07:34.219Z,12960.00
2018-08-04T11:08:34.240Z,12976.00
2018-08-04T11:09:34.282Z,12972.00
2018-08-04T11:10:34.355Z,12976.00
2018-08-04T11:11:34.324Z,12980.00
2018-08-04T11:12:34.403Z,13008.00
2018-08-04T11:13:34.391Z,13028.00
2018-08-04T11:14:34.420Z,13040.00
2018-08-04T11:15:34.449Z,13048.00
2018-08-04T11:16:34.466Z,13088.00
2018-08-04T11:17:34.502Z,13120.00
2018-08-04T11:18:34.531Z,13144.00
2018-08-04T11:19:34.569Z,13152.00
2018-08-04T11:20:34.584Z,13136.00
2018-08-04T11:21:34.616Z,13132.00
2018-08-04T11:22:34.642Z,13152.00
2018-08-04T11:23:34.752Z,13196.00
2018-08-04T11:24:34.698Z,13204.00
2018-08-04T11:25:34.735Z,13212.00
2018-08-04T11:26:34.766Z,13216.00
2018-08-04T11:27:34.799Z,13236.00
2018-08-04T11:28:34.816Z,13248.00
2018-08-04T11:29:34.888Z,13284.00
2018-08-04T11:30:34.883Z,13296.00
2018-08-04T11:31:34.906Z,13280.00
2018-08-04T11:32:34.940Z,13248.00
2018-08-04T11:33:34.971Z,13244.00
2018-08-04T11:34:34.999Z,13264.00
2018-08-04T11:35:35.045Z,13288.00
2018-08-04T11:36:35.062Z,13276.00
2018-08-04T11:37:35.095Z,13312.00
2018-08-04T11:38:35.116Z,13300.00
2018-08-04T11:39:35.147Z,13260.00
2018-08-04T11:40:35.179Z,13296.00
2018-08-04T11:41:35.203Z,13324.00
2018-08-04T11:42:35.232Z,13316.00
2018-08-04T11:43:35.271Z,13304.00
2018-08-04T11:44:35.289Z,13304.00
2018-08-04T11:45:35.374Z,13296.00
2018-08-04T11:46:35.355Z,13320.00
2018-08-04T11:47:35.386Z,13332.00
2018-08-04T11:48:35.415Z,13296.00
2018-08-04T11:49:35.438Z,13308.00
2018-08-04T11:50:35.469Z,13300.00
2018-08-04T11:51:35.580Z,13328.00
2018-08-04T11:52:35.527Z,13336.00
2018-08-04T11:53:35.562Z,13364.00
2018-08-04T11:54:35.584Z,13364.00
2018-08-04T11:55:35.622Z,13316.00
2018-08-04T11:56:35.655Z,13328.00
2018-08-04T11:57:35.686Z,13328.00
2018-08-04T11:58:35.708Z,13316.00
2018-08-04T11:59:35.736Z,13284.00
2018-08-04T12:00:35.770Z,13280.00
2018-08-04T12:01:35.802Z,13276.00
2018-08-04T12:02:35.827Z,13288.00
2018-08-04T12:03:35.856Z,13288.00
2018-08-04T12:04:35.892Z,13300.00
2018-08-04T12:05:35.931Z,13316.00
2018-08-04T12:06:35.958Z,13300.00
2018-08-04T12:07:35.987Z,13344.00
2018-08-04T12:08:36.013Z,13344.00
2018-08-04T12:09:36.044Z,13328.00
2018-08-04T12:10:36.074Z,13268.00
2018-08-04T12:11:36.097Z,13276.00
2018-08-04T12:12:36.139Z,13252.00
2018-08-04T12:13:36.164Z,13244.00
2018-08-04T12:14:36.196Z,13288.00
2018-08-04T12:15:36.231Z,13336.00
2018-08-04T12:16:36.259Z,13312.00
2018-08-04T12:17:36.291Z,13292.00
2018-08-04T12:18:36.318Z,13288.00
2018-08-04T12:19:36.390Z,13264.00
2018-08-04T12:20:36.387Z,13248.00
2018-08-04T12:21:36.411Z,13236.00
2018-08-04T12:22:36.432Z,13224.00
2018-08-04T12:23:36.464Z,13224.00
2018-08-04T12:24:36.499Z,13224.00
2018-08-04T12:25:36.605Z,13264.00
2018-08-04T12:26:36.562Z,13256.00
2018-08-04T12:27:36.594Z,13268.00
2018-08-04T12:28:36.621Z,13304.00
2018-08-04T12:29:36.648Z,13284.00
2018-08-04T12:30:36.683Z,13288.00
2018-08-04T12:31:36.714Z,13304.00